Terminal Aerodrome Forecast
Issued by NWS

Home | Current Version | Previous Version | Graphics & Text | Print | Product List | Glossary On
Versions: 1 2 3 4 5 6 7 8 9 10 11 12 13 14 15 16 17 18
325
FTUS42 KMHX 202345
TAFPGV
TAF
KPGV 202345Z 2100/2124 19005KT P6SM FEW250
     FM210500 18004KT 3SM BR SCT007 SCT110
     FM211400 20007KT P6SM SCT015 SCT040
     FM211800 21009KT P6SM SCT060
      AMD LTD TO CLD VIS AND WIND=

USA.gov is the U.S. government's official web portal to all federal, state and local government web resources and services.